sensor_id;sensor_type;location;lat;lon;timestamp;pressure;altitude;pressure_sealevel;temperature;humidity
35704;BME280;21820;51.112;13.762;2023-03-29T00:01:14;99966.66;;;22.43;56.93
35704;BME280;21820;51.112;13.762;2023-03-29T00:03:39;99969.41;;;22.42;56.29
35704;BME280;21820;51.112;13.762;2023-03-29T00:06:08;99959.63;;;22.44;56.18
35704;BME280;21820;51.112;13.762;2023-03-29T00:08:33;99964.88;;;22.44;56.25
35704;BME280;21820;51.112;13.762;2023-03-29T00:10:59;99951.09;;;22.42;56.19
35704;BME280;21820;51.112;13.762;2023-03-29T00:13:25;99953.00;;;22.40;56.20
35704;BME280;21820;51.112;13.762;2023-03-29T00:15:50;99937.84;;;22.34;55.84
35704;BME280;21820;51.112;13.762;2023-03-29T00:18:16;99945.69;;;22.34;56.04
35704;BME280;21820;51.112;13.762;2023-03-29T00:20:41;99936.44;;;22.30;55.96
35704;BME280;21820;51.112;13.762;2023-03-29T00:23:06;99938.41;;;22.28;56.47
35704;BME280;21820;51.112;13.762;2023-03-29T00:25:31;99937.69;;;22.26;55.19
35704;BME280;21820;51.112;13.762;2023-03-29T00:27:56;99933.69;;;22.22;55.34
35704;BME280;21820;51.112;13.762;2023-03-29T00:30:22;99936.72;;;22.17;56.41
35704;BME280;21820;51.112;13.762;2023-03-29T00:32:47;99944.00;;;22.14;56.23
35704;BME280;21820;51.112;13.762;2023-03-29T00:35:12;99940.69;;;22.12;55.77
35704;BME280;21820;51.112;13.762;2023-03-29T00:37:38;99940.00;;;22.10;57.21
35704;BME280;21820;51.112;13.762;2023-03-29T00:40:05;99916.81;;;21.95;56.87
35704;BME280;21820;51.112;13.762;2023-03-29T00:42:35;99936.84;;;22.06;56.42
35704;BME280;21820;51.112;13.762;2023-03-29T00:49:51;99904.53;;;21.86;56.42
35704;BME280;21820;51.112;13.762;2023-03-29T00:52:18;99919.44;;;21.95;56.20
35704;BME280;21820;51.112;13.762;2023-03-29T00:54:51;99914.34;;;21.94;57.79
35704;BME280;21820;51.112;13.762;2023-03-29T00:57:18;99898.63;;;21.94;56.96
35704;BME280;21820;51.112;13.762;2023-03-29T00:59:45;99905.63;;;21.93;57.07
35704;BME280;21820;51.112;13.762;2023-03-29T01:02:12;99906.88;;;21.89;56.43
35704;BME280;21820;51.112;13.762;2023-03-29T01:04:45;99901.94;;;21.86;56.26
35704;BME280;21820;51.112;13.762;2023-03-29T01:09:47;99901.94;;;21.86;56.82
35704;BME280;21820;51.112;13.762;2023-03-29T01:12:18;99875.81;;;21.75;56.68
35704;BME280;21820;51.112;13.762;2023-03-29T01:14:47;99882.91;;;21.84;56.60
35704;BME280;21820;51.112;13.762;2023-03-29T01:17:14;99882.06;;;21.84;57.61
35704;BME280;21820;51.112;13.762;2023-03-29T01:19:44;99874.63;;;21.79;56.90
35704;BME280;21820;51.112;13.762;2023-03-29T01:22:20;99878.75;;;21.82;57.90
35704;BME280;21820;51.112;13.762;2023-03-29T01:30:07;99867.47;;;21.81;58.45
35704;BME280;21820;51.112;13.762;2023-03-29T01:32:46;99865.25;;;21.77;57.08
35704;BME280;21820;51.112;13.762;2023-03-29T01:35:23;99864.84;;;21.81;57.47
35704;BME280;21820;51.112;13.762;2023-03-29T01:37:54;99857.25;;;21.78;57.64
35704;BME280;21820;51.112;13.762;2023-03-29T01:40:20;99861.81;;;21.76;56.78
35704;BME280;21820;51.112;13.762;2023-03-29T01:48:04;99849.41;;;21.78;57.25
35704;BME280;21820;51.112;13.762;2023-03-29T01:50:51;99814.50;;;21.68;58.11
35704;BME280;21820;51.112;13.762;2023-03-29T01:55:51;99831.63;;;21.82;58.62
35704;BME280;21820;51.112;13.762;2023-03-29T01:58:17;99822.00;;;21.82;57.60
35704;BME280;21820;51.112;13.762;2023-03-29T02:00:42;99821.13;;;21.72;58.44
35704;BME280;21820;51.112;13.762;2023-03-29T02:03:09;99828.88;;;21.83;56.97
35704;BME280;21820;51.112;13.762;2023-03-29T02:05:34;99822.00;;;21.82;57.93
35704;BME280;21820;51.112;13.762;2023-03-29T02:08:01;99799.50;;;21.70;57.79
35704;BME280;21820;51.112;13.762;2023-03-29T02:10:29;99817.19;;;21.78;56.97
35704;BME280;21820;51.112;13.762;2023-03-29T02:12:55;99810.13;;;21.78;57.52
35704;BME280;21820;51.112;13.762;2023-03-29T02:15:20;99809.34;;;21.78;57.64
35704;BME280;21820;51.112;13.762;2023-03-29T02:17:47;99810.84;;;21.80;57.63
35704;BME280;21820;51.112;13.762;2023-03-29T02:25:10;99809.19;;;21.79;57.69
35704;BME280;21820;51.112;13.762;2023-03-29T02:27:36;99805.75;;;21.79;58.25
35704;BME280;21820;51.112;13.762;2023-03-29T02:30:03;99803.25;;;21.77;58.40
35704;BME280;21820;51.112;13.762;2023-03-29T02:32:41;99780.47;;;21.68;57.96
35704;BME280;21820;51.112;13.762;2023-03-29T02:35:11;99788.88;;;21.72;58.09
35704;BME280;21820;51.112;13.762;2023-03-29T02:37:38;99786.97;;;21.74;58.75
35704;BME280;21820;51.112;13.762;2023-03-29T02:40:07;99791.38;;;21.73;57.63
35704;BME280;21820;51.112;13.762;2023-03-29T02:42:36;99777.19;;;21.66;58.32
35704;BME280;21820;51.112;13.762;2023-03-29T02:45:02;99777.19;;;21.66;57.70
35704;BME280;21820;51.112;13.762;2023-03-29T02:47:30;99774.72;;;21.65;58.37
35704;BME280;21820;51.112;13.762;2023-03-29T02:49:57;99768.78;;;21.63;58.69
35704;BME280;21820;51.112;13.762;2023-03-29T02:52:24;99767.00;;;21.63;58.57
35704;BME280;21820;51.112;13.762;2023-03-29T02:54:51;99761.34;;;21.58;58.17
35704;BME280;21820;51.112;13.762;2023-03-29T02:57:19;99763.56;;;21.63;59.17
35704;BME280;21820;51.112;13.762;2023-03-29T02:59:50;99754.44;;;21.57;58.55
35704;BME280;21820;51.112;13.762;2023-03-29T03:02:15;99746.19;;;21.62;58.68
35704;BME280;21820;51.112;13.762;2023-03-29T03:04:42;99741.22;;;21.59;57.38
35704;BME280;21820;51.112;13.762;2023-03-29T03:07:07;99736.41;;;21.54;58.40
35704;BME280;21820;51.112;13.762;2023-03-29T03:09:32;99740.81;;;21.54;58.02
35704;BME280;21820;51.112;13.762;2023-03-29T03:11:58;99732.94;;;21.44;58.81
35704;BME280;21820;51.112;13.762;2023-03-29T03:14:23;99733.66;;;21.46;59.49
35704;BME280;21820;51.112;13.762;2023-03-29T03:16:48;99725.53;;;21.49;59.08
35704;BME280;21820;51.112;13.762;2023-03-29T03:19:14;99723.03;;;21.48;59.80
35704;BME280;21820;51.112;13.762;2023-03-29T03:21:39;99724.69;;;21.49;58.35
35704;BME280;21820;51.112;13.762;2023-03-29T03:24:04;99723.88;;;21.48;59.26
35704;BME280;21820;51.112;13.762;2023-03-29T03:26:31;99716.84;;;21.49;59.20
35704;BME280;21820;51.112;13.762;2023-03-29T03:28:57;99729.13;;;21.48;58.71
35704;BME280;21820;51.112;13.762;2023-03-29T03:31:22;99724.41;;;21.42;58.70
35704;BME280;21820;51.112;13.762;2023-03-29T03:33:47;99721.69;;;21.53;59.42
35704;BME280;21820;51.112;13.762;2023-03-29T03:36:13;99720.72;;;21.54;58.76
35704;BME280;21820;51.112;13.762;2023-03-29T03:38:38;99711.06;;;21.45;59.14
35704;BME280;21820;51.112;13.762;2023-03-29T03:41:04;99722.66;;;21.71;57.68
35704;BME280;21820;51.112;13.762;2023-03-29T03:43:30;99707.09;;;22.18;55.69
35704;BME280;21820;51.112;13.762;2023-03-29T03:45:56;99715.25;;;22.70;54.61
35704;BME280;21820;51.112;13.762;2023-03-29T03:48:22;99720.75;;;23.04;53.03
35704;BME280;21820;51.112;13.762;2023-03-29T03:50:51;99713.19;;;23.28;52.36
35704;BME280;21820;51.112;13.762;2023-03-29T03:53:17;99707.97;;;23.46;52.29
35704;BME280;21820;51.112;13.762;2023-03-29T03:55:48;99714.34;;;23.61;51.66
35704;BME280;21820;51.112;13.762;2023-03-29T03:58:14;99715.25;;;23.69;51.36
35704;BME280;21820;51.112;13.762;2023-03-29T04:00:40;99717.63;;;23.80;50.49
35704;BME280;21820;51.112;13.762;2023-03-29T04:03:05;99714.59;;;23.85;50.75
35704;BME280;21820;51.112;13.762;2023-03-29T04:05:31;99710.66;;;23.89;50.68
35704;BME280;21820;51.112;13.762;2023-03-29T04:07:56;99698.22;;;23.91;50.83
35704;BME280;21820;51.112;13.762;2023-03-29T04:10:21;99691.44;;;23.88;50.69
35704;BME280;21820;51.112;13.762;2023-03-29T04:12:47;99706.91;;;24.09;49.79
35704;BME280;21820;51.112;13.762;2023-03-29T04:15:12;99702.19;;;24.12;50.48
35704;BME280;21820;51.112;13.762;2023-03-29T04:17:37;99701.03;;;24.15;50.09
35704;BME280;21820;51.112;13.762;2023-03-29T04:20:03;99697.97;;;24.19;49.90
35704;BME280;21820;51.112;13.762;2023-03-29T04:22:34;99681.16;;;24.12;49.96
35704;BME280;21820;51.112;13.762;2023-03-29T04:24:59;99703.97;;;24.29;49.61
35704;BME280;21820;51.112;13.762;2023-03-29T04:27:25;99701.69;;;24.34;49.53
35704;BME280;21820;51.112;13.762;2023-03-29T04:29:50;99697.41;;;24.33;49.23
35704;BME280;21820;51.112;13.762;2023-03-29T04:32:15;99688.88;;;24.39;49.03
35704;BME280;21820;51.112;13.762;2023-03-29T04:34:40;99694.06;;;24.49;49.35
35704;BME280;21820;51.112;13.762;2023-03-29T04:37:06;99691.75;;;24.46;49.16
35704;BME280;21820;51.112;13.762;2023-03-29T04:39:37;99694.81;;;24.41;49.01
35704;BME280;21820;51.112;13.762;2023-03-29T04:42:03;99691.09;;;24.26;49.86
35704;BME280;21820;51.112;13.762;2023-03-29T04:44:29;99682.81;;;24.13;49.55
35704;BME280;21820;51.112;13.762;2023-03-29T04:46:54;99688.31;;;24.02;50.26
35704;BME280;21820;51.112;13.762;2023-03-29T04:49:19;99685.75;;;23.93;50.17
35704;BME280;21820;51.112;13.762;2023-03-29T04:51:44;99680.22;;;23.78;50.46
35704;BME280;21820;51.112;13.762;2023-03-29T04:54:10;99683.31;;;23.56;50.93
35704;BME280;21820;51.112;13.762;2023-03-29T04:56:35;99679.94;;;23.46;51.70
35704;BME280;21820;51.112;13.762;2023-03-29T04:59:01;99678.78;;;23.31;51.33
35704;BME280;21820;51.112;13.762;2023-03-29T05:01:27;99681.31;;;23.23;51.91
35704;BME280;21820;51.112;13.762;2023-03-29T05:03:52;99682.41;;;23.20;52.50
35704;BME280;21820;51.112;13.762;2023-03-29T05:06:18;99673.06;;;23.18;52.57
35704;BME280;21820;51.112;13.762;2023-03-29T05:08:43;99676.06;;;23.23;52.50
35704;BME280;21820;51.112;13.762;2023-03-29T05:11:09;99668.28;;;23.31;51.99
35704;BME280;21820;51.112;13.762;2023-03-29T05:13:36;99665.75;;;23.39;52.04
35704;BME280;21820;51.112;13.762;2023-03-29T05:16:01;99649.78;;;23.33;51.01
35704;BME280;21820;51.112;13.762;2023-03-29T05:18:27;99657.69;;;23.50;50.72
35704;BME280;21820;51.112;13.762;2023-03-29T05:20:53;99652.34;;;23.60;50.61
35704;BME280;21820;51.112;13.762;2023-03-29T05:23:19;99655.56;;;23.71;50.87
35704;BME280;21820;51.112;13.762;2023-03-29T05:25:46;99651.84;;;23.82;50.28
35704;BME280;21820;51.112;13.762;2023-03-29T05:28:11;99644.84;;;23.90;50.33
35704;BME280;21820;51.112;13.762;2023-03-29T05:30:37;99646.75;;;23.98;49.51
35704;BME280;21820;51.112;13.762;2023-03-29T05:33:02;99643.03;;;24.08;50.08
35704;BME280;21820;51.112;13.762;2023-03-29T05:35:29;99638.50;;;24.18;49.30
35704;BME280;21820;51.112;13.762;2023-03-29T05:37:54;99640.91;;;24.29;49.00
35704;BME280;21820;51.112;13.762;2023-03-29T05:40:20;99638.91;;;24.31;49.07
35704;BME280;21820;51.112;13.762;2023-03-29T05:42:45;99634.97;;;24.27;49.11
35704;BME280;21820;51.112;13.762;2023-03-29T05:45:11;99639.88;;;24.22;49.56
35704;BME280;21820;51.112;13.762;2023-03-29T05:47:36;99640.09;;;24.11;49.74
35704;BME280;21820;51.112;13.762;2023-03-29T05:50:01;99645.31;;;24.03;49.83
35704;BME280;21820;51.112;13.762;2023-03-29T05:52:27;99647.84;;;23.95;50.10
35704;BME280;21820;51.112;13.762;2023-03-29T05:54:52;99648.72;;;23.78;50.47
35704;BME280;21820;51.112;13.762;2023-03-29T05:57:17;99655.88;;;23.68;50.83
35704;BME280;21820;51.112;13.762;2023-03-29T05:59:42;99658.16;;;23.54;50.81
35704;BME280;21820;51.112;13.762;2023-03-29T06:02:09;99654.94;;;23.42;50.98
35704;BME280;21820;51.112;13.762;2023-03-29T06:04:34;99655.78;;;23.43;51.30
35704;BME280;21820;51.112;13.762;2023-03-29T06:07:00;99655.63;;;23.44;51.17
35704;BME280;21820;51.112;13.762;2023-03-29T06:09:26;99654.91;;;23.52;51.12
35704;BME280;21820;51.112;13.762;2023-03-29T06:11:51;99639.22;;;23.42;51.60
35704;BME280;21820;51.112;13.762;2023-03-29T06:14:17;99658.91;;;23.64;51.15
35704;BME280;21820;51.112;13.762;2023-03-29T06:16:43;99657.88;;;23.74;50.67
35704;BME280;21820;51.112;13.762;2023-03-29T06:19:08;99652.47;;;23.76;50.15
35704;BME280;21820;51.112;13.762;2023-03-29T06:21:34;99663.16;;;24.00;50.13
35704;BME280;21820;51.112;13.762;2023-03-29T06:23:59;99648.69;;;23.96;50.16
35704;BME280;21820;51.112;13.762;2023-03-29T06:26:24;99668.72;;;24.14;49.68
35704;BME280;21820;51.112;13.762;2023-03-29T06:28:51;99655.94;;;24.19;49.78
35704;BME280;21820;51.112;13.762;2023-03-29T06:31:17;99663.25;;;24.33;49.25
35704;BME280;21820;51.112;13.762;2023-03-29T06:33:43;99656.03;;;24.35;49.18
35704;BME280;21820;51.112;13.762;2023-03-29T06:36:09;99640.91;;;24.29;49.09
35704;BME280;21820;51.112;13.762;2023-03-29T06:38:34;99661.13;;;24.37;49.40
35704;BME280;21820;51.112;13.762;2023-03-29T06:41:04;99659.72;;;24.25;49.56
35704;BME280;21820;51.112;13.762;2023-03-29T06:43:30;99656.75;;;24.20;49.76
35704;BME280;21820;51.112;13.762;2023-03-29T06:45:56;99643.97;;;23.99;50.24
35704;BME280;21820;51.112;13.762;2023-03-29T06:48:22;99663.59;;;23.95;50.11
35704;BME280;21820;51.112;13.762;2023-03-29T06:50:47;99661.22;;;23.84;50.90
35704;BME280;21820;51.112;13.762;2023-03-29T06:53:13;99661.13;;;23.68;50.96
35704;BME280;21820;51.112;13.762;2023-03-29T06:55:39;99660.00;;;23.53;51.03
35704;BME280;21820;51.112;13.762;2023-03-29T06:58:05;99666.13;;;23.44;51.40
35704;BME280;21820;51.112;13.762;2023-03-29T07:00:32;99659.53;;;23.40;51.43
35704;BME280;21820;51.112;13.762;2023-03-29T07:03:02;99662.97;;;23.41;52.20
35704;BME280;21820;51.112;13.762;2023-03-29T07:05:28;99661.56;;;23.46;51.45
35704;BME280;21820;51.112;13.762;2023-03-29T07:07:54;99641.94;;;23.50;51.81
35704;BME280;21820;51.112;13.762;2023-03-29T07:10:20;99656.75;;;23.59;50.86
35704;BME280;21820;51.112;13.762;2023-03-29T07:12:46;99650.00;;;23.74;50.53
35704;BME280;21820;51.112;13.762;2023-03-29T07:15:11;99645.78;;;23.81;51.01
35704;BME280;21820;51.112;13.762;2023-03-29T07:17:37;99633.84;;;23.87;50.16
35704;BME280;21820;51.112;13.762;2023-03-29T07:20:02;99643.66;;;24.02;50.17
35704;BME280;21820;51.112;13.762;2023-03-29T07:22:32;99650.47;;;24.13;50.01
35704;BME280;21820;51.112;13.762;2023-03-29T07:24:57;99625.81;;;24.06;50.04
35704;BME280;21820;51.112;13.762;2023-03-29T07:27:24;99653.03;;;24.30;49.16
35704;BME280;21820;51.112;13.762;2023-03-29T07:29:50;99651.13;;;24.40;49.22
35704;BME280;21820;51.112;13.762;2023-03-29T07:32:16;99653.91;;;24.39;49.53
35704;BME280;21820;51.112;13.762;2023-03-29T07:34:41;99648.50;;;24.40;49.41
35704;BME280;21820;51.112;13.762;2023-03-29T07:37:06;99659.66;;;24.34;49.77
35704;BME280;21820;51.112;13.762;2023-03-29T07:39:33;99655.31;;;24.25;49.55
35704;BME280;21820;51.112;13.762;2023-03-29T07:41:59;99654.44;;;24.17;49.82
35704;BME280;21820;51.112;13.762;2023-03-29T07:44:25;99659.13;;;24.05;50.24
35704;BME280;21820;51.112;13.762;2023-03-29T07:46:51;99640.22;;;23.84;50.40
35704;BME280;21820;51.112;13.762;2023-03-29T07:49:16;99659.88;;;23.80;50.69
35704;BME280;21820;51.112;13.762;2023-03-29T07:51:41;99641.31;;;23.56;50.95
35704;BME280;21820;51.112;13.762;2023-03-29T07:54:07;99655.69;;;23.52;51.27
35704;BME280;21820;51.112;13.762;2023-03-29T07:56:32;99670.25;;;23.47;51.92
35704;BME280;21820;51.112;13.762;2023-03-29T07:58:57;99655.94;;;23.41;51.56
35704;BME280;21820;51.112;13.762;2023-03-29T08:01:23;99651.22;;;23.45;51.34
35704;BME280;21820;51.112;13.762;2023-03-29T08:03:48;99655.06;;;23.50;52.11
35704;BME280;21820;51.112;13.762;2023-03-29T08:06:13;99660.06;;;23.61;51.77
35704;BME280;21820;51.112;13.762;2023-03-29T08:08:40;99668.69;;;23.71;50.95
35704;BME280;21820;51.112;13.762;2023-03-29T08:11:06;99662.34;;;23.82;51.12
35704;BME280;21820;51.112;13.762;2023-03-29T08:13:32;99645.94;;;23.80;50.95
35704;BME280;21820;51.112;13.762;2023-03-29T08:15:58;99673.16;;;23.96;50.87
35704;BME280;21820;51.112;13.762;2023-03-29T08:18:24;99664.22;;;24.07;49.71
35704;BME280;21820;51.112;13.762;2023-03-29T08:20:49;99657.91;;;24.17;49.55
35704;BME280;21820;51.112;13.762;2023-03-29T08:23:15;99657.63;;;24.28;49.37
35704;BME280;21820;51.112;13.762;2023-03-29T08:25:40;99663.59;;;24.38;49.38
35704;BME280;21820;51.112;13.762;2023-03-29T08:28:06;99661.00;;;24.46;49.23
35704;BME280;21820;51.112;13.762;2023-03-29T08:30:32;99659.22;;;24.47;49.47
35704;BME280;21820;51.112;13.762;2023-03-29T08:32:57;99650.81;;;24.43;49.25
35704;BME280;21820;51.112;13.762;2023-03-29T08:35:22;99660.78;;;24.32;49.56
35704;BME280;21820;51.112;13.762;2023-03-29T08:37:48;99657.94;;;24.25;49.75
35704;BME280;21820;51.112;13.762;2023-03-29T08:40:20;99652.94;;;24.14;49.60
35704;BME280;21820;51.112;13.762;2023-03-29T08:42:56;99645.03;;;24.06;50.48
35704;BME280;21820;51.112;13.762;2023-03-29T08:50:50;99649.56;;;23.61;50.96
35704;BME280;21820;51.112;13.762;2023-03-29T08:55:43;99644.19;;;23.45;52.12
35704;BME280;21820;51.112;13.762;2023-03-29T08:58:11;99649.66;;;23.52;51.76
35704;BME280;21820;51.112;13.762;2023-03-29T09:00:45;99625.13;;;23.43;52.00
35704;BME280;21820;51.112;13.762;2023-03-29T09:03:18;99636.81;;;23.66;51.19
35704;BME280;21820;51.112;13.762;2023-03-29T09:05:46;99632.28;;;23.76;50.74
35704;BME280;21820;51.112;13.762;2023-03-29T09:08:13;99609.63;;;23.75;50.58
35704;BME280;21820;51.112;13.762;2023-03-29T09:11:45;99628.22;;;23.99;50.75
35704;BME280;21820;51.112;13.762;2023-03-29T09:16:10;99621.94;;;24.18;50.33
35704;BME280;21820;51.112;13.762;2023-03-29T09:18:42;99621.84;;;24.27;49.94
35704;BME280;21820;51.112;13.762;2023-03-29T09:26:22;99620.97;;;24.53;49.13
35704;BME280;21820;51.112;13.762;2023-03-29T09:31:20;99616.97;;;24.40;49.35
35704;BME280;21820;51.112;13.762;2023-03-29T09:38:42;99616.25;;;24.05;49.97
35704;BME280;21820;51.112;13.762;2023-03-29T09:41:13;99598.69;;;23.80;50.93
35704;BME280;21820;51.112;13.762;2023-03-29T09:43:40;99609.34;;;23.78;50.71
35704;BME280;21820;51.112;13.762;2023-03-29T09:46:19;99611.41;;;23.67;51.46
35704;BME280;21820;51.112;13.762;2023-03-29T09:48:45;99612.44;;;23.56;51.41
35704;BME280;21820;51.112;13.762;2023-03-29T09:51:12;99616.50;;;23.51;51.51
35704;BME280;21820;51.112;13.762;2023-03-29T09:53:38;99618.97;;;23.52;51.56
35704;BME280;21820;51.112;13.762;2023-03-29T09:56:03;99611.59;;;23.56;51.82
35704;BME280;21820;51.112;13.762;2023-03-29T09:58:30;99610.56;;;23.66;51.77
35704;BME280;21820;51.112;13.762;2023-03-29T10:00:57;99616.84;;;23.73;51.33
35704;BME280;21820;51.112;13.762;2023-03-29T10:03:24;99613.66;;;23.87;50.98
35704;BME280;21820;51.112;13.762;2023-03-29T10:05:50;99615.66;;;23.93;50.99
35704;BME280;21820;51.112;13.762;2023-03-29T10:08:21;99600.38;;;24.06;50.76
35704;BME280;21820;51.112;13.762;2023-03-29T10:10:46;99599.78;;;24.20;50.46
35704;BME280;21820;51.112;13.762;2023-03-29T10:13:13;99595.22;;;24.30;49.81
35704;BME280;21820;51.112;13.762;2023-03-29T10:15:41;99589.34;;;24.36;49.19
35704;BME280;21820;51.112;13.762;2023-03-29T10:18:07;99562.41;;;24.34;49.29
35704;BME280;21820;51.112;13.762;2023-03-29T10:20:35;99565.06;;;24.34;49.20
35704;BME280;21820;51.112;13.762;2023-03-29T10:23:03;99580.69;;;24.44;49.37
35704;BME280;21820;51.112;13.762;2023-03-29T10:25:30;99583.13;;;24.37;49.54
35704;BME280;21820;51.112;13.762;2023-03-29T10:28:03;99584.72;;;24.30;50.12
35704;BME280;21820;51.112;13.762;2023-03-29T10:30:30;99586.13;;;24.17;50.47
35704;BME280;21820;51.112;13.762;2023-03-29T10:32:57;99571.75;;;24.03;50.03
35704;BME280;21820;51.112;13.762;2023-03-29T10:35:27;99582.66;;;23.91;51.07
35704;BME280;21820;51.112;13.762;2023-03-29T10:37:54;99587.19;;;23.81;50.75
35704;BME280;21820;51.112;13.762;2023-03-29T10:40:30;99578.75;;;23.69;51.62
35704;BME280;21820;51.112;13.762;2023-03-29T10:42:57;99571.41;;;23.55;51.66
35704;BME280;21820;51.112;13.762;2023-03-29T10:45:29;99569.19;;;23.43;51.90
35704;BME280;21820;51.112;13.762;2023-03-29T10:47:56;99576.53;;;23.39;52.58
35704;BME280;21820;51.112;13.762;2023-03-29T10:50:21;99546.94;;;23.29;52.58
35704;BME280;21820;51.112;13.762;2023-03-29T10:52:47;99563.78;;;23.44;52.65
35704;BME280;21820;51.112;13.762;2023-03-29T10:55:14;99574.03;;;23.55;52.31
35704;BME280;21820;51.112;13.762;2023-03-29T11:02:44;99566.09;;;23.90;50.62
35704;BME280;21820;51.112;13.762;2023-03-29T11:05:17;99552.06;;;23.99;50.75
35704;BME280;21820;51.112;13.762;2023-03-29T11:07:56;99558.84;;;24.10;50.85
35704;BME280;21820;51.112;13.762;2023-03-29T11:13:16;99548.44;;;24.34;49.66
35704;BME280;21820;51.112;13.762;2023-03-29T11:20:44;99536.09;;;24.26;49.84
35704;BME280;21820;51.112;13.762;2023-03-29T11:43:04;99521.44;;;23.39;52.17
35704;BME280;21820;51.112;13.762;2023-03-29T11:45:37;99497.94;;;23.30;52.51
35704;BME280;21820;51.112;13.762;2023-03-29T11:48:04;99509.06;;;23.49;52.51
35704;BME280;21820;51.112;13.762;2023-03-29T11:50:38;99508.78;;;23.60;52.14
35704;BME280;21820;51.112;13.762;2023-03-29T11:53:11;99501.78;;;23.69;51.84
35704;BME280;21820;51.112;13.762;2023-03-29T11:55:37;99500.09;;;23.85;51.34
35704;BME280;21820;51.112;13.762;2023-03-29T11:58:17;99496.69;;;23.93;50.54
35704;BME280;21820;51.112;13.762;2023-03-29T12:00:50;99494.47;;;24.06;50.45
35704;BME280;21820;51.112;13.762;2023-03-29T12:08:30;99497.53;;;24.35;49.82
35704;BME280;21820;51.112;13.762;2023-03-29T12:13:45;99463.81;;;24.14;49.55
35704;BME280;21820;51.112;13.762;2023-03-29T12:18:58;99486.78;;;24.12;50.11
35704;BME280;21820;51.112;13.762;2023-03-29T12:21:25;99472.28;;;24.00;50.22
35704;BME280;21820;51.112;13.762;2023-03-29T12:23:52;99476.81;;;23.90;51.12
35704;BME280;21820;51.112;13.762;2023-03-29T12:26:31;99478.56;;;23.82;50.85
35704;BME280;21820;51.112;13.762;2023-03-29T12:39:15;99457.06;;;23.27;52.88
35704;BME280;21820;51.112;13.762;2023-03-29T12:41:41;99460.38;;;23.29;52.86
35704;BME280;21820;51.112;13.762;2023-03-29T12:44:13;99430.84;;;23.27;52.77
35704;BME280;21820;51.112;13.762;2023-03-29T12:46:39;99456.88;;;23.46;52.30
35704;BME280;21820;51.112;13.762;2023-03-29T12:49:13;99447.94;;;23.57;52.17
35704;BME280;21820;51.112;13.762;2023-03-29T12:51:46;99441.94;;;23.72;51.97
35704;BME280;21820;51.112;13.762;2023-03-29T12:54:15;99419.63;;;23.68;51.17
35704;BME280;21820;51.112;13.762;2023-03-29T12:59:38;99444.41;;;24.07;50.88
35704;BME280;21820;51.112;13.762;2023-03-29T13:07:14;99427.06;;;24.30;50.07
35704;BME280;21820;51.112;13.762;2023-03-29T13:09:52;99430.19;;;24.26;50.10
35704;BME280;21820;51.112;13.762;2023-03-29T13:12:23;99421.47;;;24.17;49.95
35704;BME280;21820;51.112;13.762;2023-03-29T13:14:51;99428.50;;;24.09;50.38
35704;BME280;21820;51.112;13.762;2023-03-29T13:17:23;99423.69;;;23.96;50.75
35704;BME280;21820;51.112;13.762;2023-03-29T13:27:51;99404.94;;;23.50;52.40
35704;BME280;21820;51.112;13.762;2023-03-29T13:30:34;99395.06;;;23.26;52.38
35704;BME280;21820;51.112;13.762;2023-03-29T13:33:16;99411.22;;;23.31;52.36
35704;BME280;21820;51.112;13.762;2023-03-29T13:35:50;99410.81;;;23.26;52.36
35704;BME280;21820;51.112;13.762;2023-03-29T13:38:21;99418.91;;;23.33;52.84
35704;BME280;21820;51.112;13.762;2023-03-29T13:41:03;99411.25;;;23.39;52.28
35704;BME280;21820;51.112;13.762;2023-03-29T13:43:36;99416.09;;;23.52;52.64
35704;BME280;21820;51.112;13.762;2023-03-29T13:48:49;99409.50;;;23.81;50.96
35704;BME280;21820;51.112;13.762;2023-03-29T13:53:44;99400.75;;;24.06;50.85
35704;BME280;21820;51.112;13.762;2023-03-29T13:56:14;99399.44;;;24.18;50.73
35704;BME280;21820;51.112;13.762;2023-03-29T13:58:48;99393.91;;;24.29;49.60
35704;BME280;21820;51.112;13.762;2023-03-29T14:03:50;99376.13;;;24.07;50.50
35704;BME280;21820;51.112;13.762;2023-03-29T14:06:16;99391.41;;;24.12;50.58
35704;BME280;21820;51.112;13.762;2023-03-29T14:08:45;99384.16;;;24.06;50.71
35704;BME280;21820;51.112;13.762;2023-03-29T14:13:43;99367.16;;;23.76;51.53
35704;BME280;21820;51.112;13.762;2023-03-29T14:16:09;99387.16;;;23.77;51.03
35704;BME280;21820;51.112;13.762;2023-03-29T14:18:36;99382.19;;;23.66;51.70
35704;BME280;21820;51.112;13.762;2023-03-29T14:21:01;99374.56;;;23.47;52.05
35704;BME280;21820;51.112;13.762;2023-03-29T14:23:27;99385.00;;;23.39;52.60
35704;BME280;21820;51.112;13.762;2023-03-29T14:25:54;99383.97;;;23.32;52.57
35704;BME280;21820;51.112;13.762;2023-03-29T14:28:28;99384.22;;;23.21;52.42
35704;BME280;21820;51.112;13.762;2023-03-29T14:30:54;99381.25;;;23.16;53.06
35704;BME280;21820;51.112;13.762;2023-03-29T14:33:30;99380.56;;;23.14;52.78
35704;BME280;21820;51.112;13.762;2023-03-29T14:35:58;99381.59;;;23.21;53.31
35704;BME280;21820;51.112;13.762;2023-03-29T14:38:24;99378.75;;;23.32;53.31
35704;BME280;21820;51.112;13.762;2023-03-29T14:40:51;99376.97;;;23.41;52.58
35704;BME280;21820;51.112;13.762;2023-03-29T14:43:17;99369.66;;;23.52;51.84
35704;BME280;21820;51.112;13.762;2023-03-29T14:45:43;99370.72;;;23.67;51.44
35704;BME280;21820;51.112;13.762;2023-03-29T14:48:10;99369.44;;;23.79;51.90
35704;BME280;21820;51.112;13.762;2023-03-29T14:50:36;99369.50;;;23.95;50.65
35704;BME280;21820;51.112;13.762;2023-03-29T14:53:01;99375.63;;;24.04;51.07
35704;BME280;21820;51.112;13.762;2023-03-29T14:55:27;99368.25;;;24.15;50.40
35704;BME280;21820;51.112;13.762;2023-03-29T14:57:53;99379.44;;;24.17;50.76
35704;BME280;21820;51.112;13.762;2023-03-29T15:00:23;99368.75;;;24.11;50.31